map of APL home
APL - Airport
Location
City:  Nampula, Nampula, Mozambique
Name:Nampula Airport
ICAO:FQNP
IATA:APL

Details
Type:Airport (Aerodrome, Airfield)
Use:Public/Civil
Latitude:1506'20"S (-15.105610)
Longitude:3916'54"E (39.281800)
Datum:WGS 1984
Elevation:1444 ft (440 m)
Variation:8.23W (WMM2015 magnetic declination)
-0.04 annual change
Runways:2
Longest:6562 × 148 ft (2000 × 45 m), paved

Time
Time Zone:UTC+2
Local Time:

Weather
METAR:FQNP 070800Z 06003KT 9999 BKN020 BKN100 28/22 Q1016
TAF:FQNP 062200Z 0700/0806 09008KT 9999 SCT020 FEW025CB PROB30
TEMPO 0703/0706 4000 -TSRA SCT010 BKN020 FEW025CB
BECMG 0706/0708 10008KT 9999 SCT015 BKN020 PROB30
TEMPO 0715/0720 5000 RADZ SCT012
BECMG 0718/0720 VRB06KT
BECMG 0803/0805 08010KT SCT025 TN23/0702ZTX32/0712Z

Related Locations
Nearby:
Farthest:ITO: 11449 mi / 18426 km
Hilo [Hilo Intl], Hawaii, HI, US

Find:

   beyond  
but within

Other Information
Maps:
NOTAMs:
Links:
Sources:

  
flag of Mozambique   

Sectional Chart

Flight Planning
at skyvector.com

Satellite Image

Google Maps Satellite view

 

Copyright © 2004-2016 Karl L. Swartz. All rights reserved.
The Great Circle Mapper name and logo are trademarks of the Great Circle Mapper.
All other trademarks mentioned herein belong to their respective owners.
Please see credits for attibutions and further copyright information.

  Follow gcmap on Facebook Follow gcmap on Twitter Follow gcmap on Google+ GCmap on LinkedIn

hCard Microformat

Geo Microformat